Time;durP1;ratioP1;P1;durP2;ratioP2;P2;SDS_P1;SDS_P2;PMS_P1;PMS_P2;Temp;Humidity;BMP_temperature;BMP_pressure;BME280_temperature;BME280_humidity;BME280_pressure;Samples;Min_cycle;Max_cycle;Signal;HPM_P1;HPM_P2
2022/12/08 00:00:50;;;;;;;;;;;1.60;99.90;;;;;;4930625;28;19934;-74
2022/12/08 00:03:15;;;;;;;;;;;1.60;99.90;;;;;;4947458;28;19926;-74
2022/12/08 00:11:16;;;;;;;;;;;1.70;99.90;;;;;;4945201;28;20364;-74
2022/12/08 00:13:42;;;;;;;;;;;1.70;99.90;;;;;;4954211;28;20344;-74
2022/12/08 00:16:07;;;;;;;;;;;1.80;99.90;;;;;;4955141;28;20009;-74
2022/12/08 00:18:33;;;;;;;;;;;1.80;99.90;;;;;;4938577;28;19927;-74
2022/12/08 00:20:58;;;;;;;;;;;1.90;99.90;;;;;;4938140;28;20487;-74
2022/12/08 00:23:24;;;;;;;;;;;2.00;99.90;;;;;;4958762;28;20322;-74
2022/12/08 00:25:50;;;;;;;;;;;2.10;99.90;;;;;;4967788;28;20013;-74
2022/12/08 00:28:15;;;;;;;;;;;2.10;99.90;;;;;;4942888;28;20428;-74
2022/12/08 00:30:41;;;;;;;;;;;2.10;99.90;;;;;;4954702;28;19930;-74
2022/12/08 00:33:07;;;;;;;;;;;2.10;99.90;;;;;;4924742;28;19926;-74
2022/12/08 00:35:33;;;;;;;;;;;2.10;99.90;;;;;;4934557;28;20445;-74
2022/12/08 00:37:58;;;;;;;;;;;2.00;99.90;;;;;;4943932;28;20347;-74
2022/12/08 00:40:24;;;;;;;;;;;2.00;99.90;;;;;;4930420;29;20291;-74
2022/12/08 00:42:50;;;;;;;;;;;2.00;99.90;;;;;;4936110;28;19969;-74
2022/12/08 00:45:15;;;;;;;;;;;2.00;99.90;;;;;;4939180;28;20409;-74
2022/12/08 00:47:41;;;;;;;;;;;1.90;99.90;;;;;;4954760;28;20013;-74
2022/12/08 00:50:07;;;;;;;;;;;1.80;99.90;;;;;;4939483;28;19934;-74
2022/12/08 00:52:32;;;;;;;;;;;1.80;99.90;;;;;;4953613;28;19926;-73
2022/12/08 00:54:58;;;;;;;;;;;1.70;99.90;;;;;;4946759;28;19973;-73
2022/12/08 00:57:23;;;;;;;;;;;1.70;99.90;;;;;;4952765;28;20004;-73
2022/12/08 00:59:49;;;;;;;;;;;1.70;99.90;;;;;;4944510;28;20044;-74
2022/12/08 01:02:15;;;;;;;;;;;1.60;99.90;;;;;;4952631;28;19926;-74
2022/12/08 01:04:40;;;;;;;;;;;1.60;99.90;;;;;;4942381;28;19922;-74
2022/12/08 01:07:06;;;;;;;;;;;1.70;99.90;;;;;;4944126;28;20670;-74
2022/12/08 01:09:32;;;;;;;;;;;1.70;99.90;;;;;;4954069;28;20030;-73
2022/12/08 01:11:57;;;;;;;;;;;1.70;99.90;;;;;;4944140;28;19922;-73
2022/12/08 01:14:23;;;;;;;;;;;1.70;99.90;;;;;;4951645;28;19976;-73
2022/12/08 01:16:48;;;;;;;;;;;1.60;99.90;;;;;;4951949;28;19923;-73
2022/12/08 01:19:15;;;;;;;;;;;1.60;99.90;;;;;;4946397;28;19922;-73
2022/12/08 01:21:41;;;;;;;;;;;1.60;99.90;;;;;;4955091;28;19926;-73
2022/12/08 01:24:11;;;;;;;;;;;1.50;99.90;;;;;;4958477;28;19930;-73
2022/12/08 01:26:37;;;;;;;;;;;1.50;99.90;;;;;;4951254;28;19922;-73
2022/12/08 01:29:02;;;;;;;;;;;1.50;99.90;;;;;;4938308;28;20269;-73
2022/12/08 01:31:28;;;;;;;;;;;1.40;99.90;;;;;;4952736;28;20009;-73
2022/12/08 01:33:53;;;;;;;;;;;1.40;99.90;;;;;;4941680;28;19930;-73
2022/12/08 01:36:24;;;;;;;;;;;1.30;99.90;;;;;;4934300;28;19922;-73
2022/12/08 01:38:50;;;;;;;;;;;1.30;99.90;;;;;;4941279;28;19930;-73
2022/12/08 01:41:17;;;;;;;;;;;1.20;99.90;;;;;;4925598;28;19970;-74
2022/12/08 01:43:56;;;;;;;;;;;1.10;99.90;;;;;;4933562;28;19981;-73
2022/12/08 01:46:22;;;;;;;;;;;1.10;99.90;;;;;;4955314;28;19926;-74
2022/12/08 01:48:49;;;;;;;;;;;1.10;99.90;;;;;;4953137;28;19930;-74
2022/12/08 01:51:14;;;;;;;;;;;1.00;99.90;;;;;;4961743;28;19922;-74
2022/12/08 01:53:40;;;;;;;;;;;1.00;99.90;;;;;;4953043;28;20012;-74
2022/12/08 01:56:09;;;;;;;;;;;1.10;99.90;;;;;;4936106;28;20532;-73
2022/12/08 01:58:37;;;;;;;;;;;1.10;99.90;;;;;;4952681;28;20054;-74
2022/12/08 02:01:03;;;;;;;;;;;1.10;99.90;;;;;;4951109;28;19993;-74
2022/12/08 02:03:44;;;;;;;;;;;1.10;99.90;;;;;;4951334;28;20542;-73
2022/12/08 02:06:10;;;;;;;;;;;1.10;99.90;;;;;;4950596;28;19926;-73
2022/12/08 02:08:37;;;;;;;;;;;1.10;99.90;;;;;;4954952;28;19922;-73
2022/12/08 02:11:04;;;;;;;;;;;1.10;99.90;;;;;;4966343;28;20584;-73
2022/12/08 02:13:31;;;;;;;;;;;1.20;99.90;;;;;;4947012;28;20441;-73
2022/12/08 02:16:04;;;;;;;;;;;1.20;99.90;;;;;;4942878;28;19928;-73
2022/12/08 02:18:45;;;;;;;;;;;1.10;99.90;;;;;;4938497;28;19944;-74
2022/12/08 02:21:19;;;;;;;;;;;1.10;99.90;;;;;;4949675;28;19934;-74
2022/12/08 02:23:49;;;;;;;;;;;1.00;99.90;;;;;;4953485;28;20075;-74
2022/12/08 02:26:14;;;;;;;;;;;0.90;99.90;;;;;;4956573;28;20060;-73
2022/12/08 02:28:43;;;;;;;;;;;0.90;99.90;;;;;;4932418;28;20056;-73
2022/12/08 02:31:18;;;;;;;;;;;0.80;99.90;;;;;;4933994;29;19926;-73
2022/12/08 02:33:46;;;;;;;;;;;0.80;99.90;;;;;;4937914;28;20009;-73
2022/12/08 02:36:21;;;;;;;;;;;0.90;99.90;;;;;;4951240;28;20001;-73
2022/12/08 02:38:49;;;;;;;;;;;0.90;99.90;;;;;;4936008;28;20780;-73
2022/12/08 02:41:19;;;;;;;;;;;0.90;99.90;;;;;;4938663;28;19965;-74
2022/12/08 02:43:52;;;;;;;;;;;1.00;99.90;;;;;;4953720;28;19969;-73
2022/12/08 02:46:23;;;;;;;;;;;1.10;99.90;;;;;;4950420;28;19997;-73
2022/12/08 02:48:50;;;;;;;;;;;1.10;99.90;;;;;;4951908;28;19941;-73
2022/12/08 02:51:16;;;;;;;;;;;1.10;99.90;;;;;;4952661;28;19973;-73
2022/12/08 02:53:42;;;;;;;;;;;1.20;99.90;;;;;;4952470;28;20296;-73
2022/12/08 02:56:07;;;;;;;;;;;1.30;99.90;;;;;;4968835;28;20561;-73
2022/12/08 02:58:56;;;;;;;;;;;1.20;99.90;;;;;;4947581;28;19922;-73
2022/12/08 03:01:25;;;;;;;;;;;1.20;99.90;;;;;;4958459;28;19930;-73
2022/12/08 03:03:51;;;;;;;;;;;1.10;99.90;;;;;;4949729;28;19930;-73
2022/12/08 03:06:35;;;;;;;;;;;1.10;99.90;;;;;;4945515;28;20031;-73
2022/12/08 03:09:03;;;;;;;;;;;1.00;99.90;;;;;;4949179;28;19940;-73
2022/12/08 03:11:31;;;;;;;;;;;0.90;99.90;;;;;;4946369;28;19922;-73
2022/12/08 03:13:59;;;;;;;;;;;0.90;99.90;;;;;;4932792;28;19923;-73
2022/12/08 03:16:30;;;;;;;;;;;0.90;99.90;;;;;;4939753;28;19993;-73
2022/12/08 03:19:02;;;;;;;;;;;0.80;99.90;;;;;;4935662;28;20529;-73
2022/12/08 03:21:28;;;;;;;;;;;0.80;99.90;;;;;;4963783;28;19922;-73
2022/12/08 03:23:55;;;;;;;;;;;0.80;99.90;;;;;;4959379;28;19922;-73
2022/12/08 03:26:27;;;;;;;;;;;0.80;99.90;;;;;;4953051;28;19922;-73
2022/12/08 03:28:53;;;;;;;;;;;0.70;99.90;;;;;;4951981;28;20407;-74
2022/12/08 03:31:20;;;;;;;;;;;0.70;99.90;;;;;;4940142;28;19922;-74
2022/12/08 03:33:48;;;;;;;;;;;0.70;99.90;;;;;;4952761;28;20394;-73
2022/12/08 03:36:14;;;;;;;;;;;0.70;99.90;;;;;;4943170;28;19922;-73
2022/12/08 03:38:41;;;;;;;;;;;0.70;99.90;;;;;;4937035;28;20425;-73
2022/12/08 03:41:19;;;;;;;;;;;0.60;99.90;;;;;;4945818;28;19926;-73
2022/12/08 03:43:52;;;;;;;;;;;0.60;99.90;;;;;;4964060;28;19949;-73
2022/12/08 03:46:18;;;;;;;;;;;0.60;99.90;;;;;;4955707;28;20174;-73
2022/12/08 03:48:44;;;;;;;;;;;0.60;99.90;;;;;;4946026;28;19930;-73
2022/12/08 03:51:10;;;;;;;;;;;0.60;99.90;;;;;;4946554;28;20038;-73
2022/12/08 03:53:36;;;;;;;;;;;0.60;99.90;;;;;;4953219;28;19929;-73
2022/12/08 03:56:05;;;;;;;;;;;0.50;99.90;;;;;;4950047;28;20793;-73
2022/12/08 03:58:31;;;;;;;;;;;0.50;99.90;;;;;;4960231;28;20393;-73
2022/12/08 04:00:56;;;;;;;;;;;0.50;99.90;;;;;;4945345;28;19976;-73
2022/12/08 04:03:22;;;;;;;;;;;0.50;99.90;;;;;;4959194;28;19930;-73
2022/12/08 04:05:48;;;;;;;;;;;0.50;99.90;;;;;;4953690;28;20352;-73
2022/12/08 04:08:13;;;;;;;;;;;0.50;99.90;;;;;;4951674;28;19933;-73
2022/12/08 04:10:39;;;;;;;;;;;0.50;99.90;;;;;;4942657;28;19977;-73
2022/12/08 04:13:04;;;;;;;;;;;0.40;99.90;;;;;;4948352;28;19927;-73
2022/12/08 04:15:30;;;;;;;;;;;0.40;99.90;;;;;;4939466;28;20302;-73
2022/12/08 04:17:55;;;;;;;;;;;0.40;99.90;;;;;;4958812;28;20017;-73
2022/12/08 04:20:21;;;;;;;;;;;0.40;99.90;;;;;;4954910;28;19926;-73
2022/12/08 04:22:46;;;;;;;;;;;0.40;99.90;;;;;;4951245;28;20410;-73
2022/12/08 04:25:12;;;;;;;;;;;0.40;99.90;;;;;;4936008;29;20318;-73
2022/12/08 04:27:38;;;;;;;;;;;0.40;99.90;;;;;;4961753;28;19930;-73
2022/12/08 04:30:03;;;;;;;;;;;0.40;99.90;;;;;;4955284;28;19934;-73
2022/12/08 04:32:29;;;;;;;;;;;0.40;99.90;;;;;;4949664;28;20413;-73
2022/12/08 04:34:55;;;;;;;;;;;0.40;99.90;;;;;;4936141;28;19926;-73
2022/12/08 04:37:20;;;;;;;;;;;0.50;99.90;;;;;;4957543;28;19983;-73
2022/12/08 04:39:46;;;;;;;;;;;0.50;99.90;;;;;;4943951;28;19930;-73
2022/12/08 04:42:11;;;;;;;;;;;0.50;99.90;;;;;;4946259;28;19926;-73
2022/12/08 04:44:37;;;;;;;;;;;0.60;99.90;;;;;;4938812;28;20449;-73
2022/12/08 04:47:02;;;;;;;;;;;0.70;99.90;;;;;;4938516;28;19926;-73
2022/12/08 04:49:28;;;;;;;;;;;0.70;99.90;;;;;;4947847;28;19926;-73
2022/12/08 04:51:54;;;;;;;;;;;0.70;99.90;;;;;;4952215;28;19922;-73
2022/12/08 04:54:20;;;;;;;;;;;0.70;99.90;;;;;;4958498;28;19961;-73
2022/12/08 04:56:45;;;;;;;;;;;0.80;99.90;;;;;;4932848;29;20339;-73
2022/12/08 04:59:11;;;;;;;;;;;0.80;99.90;;;;;;4945433;28;19926;-73
2022/12/08 05:01:36;;;;;;;;;;;0.80;99.90;;;;;;4937781;28;20406;-73
2022/12/08 05:04:02;;;;;;;;;;;0.80;99.90;;;;;;4942595;28;20028;-73
2022/12/08 05:06:27;;;;;;;;;;;0.80;99.90;;;;;;4969853;28;19923;-73
2022/12/08 05:08:53;;;;;;;;;;;0.90;99.90;;;;;;4938974;28;19930;-73
2022/12/08 05:11:19;;;;;;;;;;;0.90;99.90;;;;;;4957005;28;19949;-73
2022/12/08 05:13:45;;;;;;;;;;;0.80;99.90;;;;;;4961957;28;20673;-73
2022/12/08 05:16:12;;;;;;;;;;;0.90;99.90;;;;;;4945718;28;19922;-73
2022/12/08 05:18:38;;;;;;;;;;;0.80;99.90;;;;;;4964166;28;20426;-73
2022/12/08 05:21:04;;;;;;;;;;;0.90;99.90;;;;;;4933912;28;19922;-73
2022/12/08 05:23:29;;;;;;;;;;;0.90;99.90;;;;;;4952775;28;19922;-73
2022/12/08 05:25:55;;;;;;;;;;;0.90;99.90;;;;;;4940656;28;19988;-73
2022/12/08 05:28:21;;;;;;;;;;;0.80;99.90;;;;;;4959562;28;20291;-73
2022/12/08 05:30:46;;;;;;;;;;;0.90;99.90;;;;;;4948718;28;20245;-73
2022/12/08 05:33:12;;;;;;;;;;;0.90;99.90;;;;;;4932747;28;20469;-73
2022/12/08 05:35:37;;;;;;;;;;;0.90;99.90;;;;;;4958523;28;19961;-73
2022/12/08 05:38:04;;;;;;;;;;;0.90;99.90;;;;;;4950420;28;19922;-73
2022/12/08 05:40:29;;;;;;;;;;;0.90;99.90;;;;;;4955970;28;19972;-73
2022/12/08 05:42:55;;;;;;;;;;;0.90;99.90;;;;;;4966798;28;19925;-73
2022/12/08 05:45:20;;;;;;;;;;;0.90;99.90;;;;;;4945588;28;19929;-73
2022/12/08 05:47:46;;;;;;;;;;;0.80;99.90;;;;;;4934546;28;19926;-73
2022/12/08 05:50:11;;;;;;;;;;;0.80;99.90;;;;;;4951757;28;19942;-73
2022/12/08 05:52:37;;;;;;;;;;;0.90;99.90;;;;;;4947075;28;20021;-73
2022/12/08 05:55:03;;;;;;;;;;;0.90;99.90;;;;;;4935056;28;19926;-73
2022/12/08 05:57:28;;;;;;;;;;;1.00;99.90;;;;;;4952312;28;20327;-73
2022/12/08 05:59:55;;;;;;;;;;;1.00;99.90;;;;;;4953243;28;19930;-73
2022/12/08 06:02:21;;;;;;;;;;;1.00;99.90;;;;;;4957670;28;19981;-73
2022/12/08 06:04:47;;;;;;;;;;;1.00;99.90;;;;;;4942544;28;20359;-73
2022/12/08 06:07:12;;;;;;;;;;;1.00;99.90;;;;;;4961611;28;19932;-73
2022/12/08 06:09:38;;;;;;;;;;;1.00;99.90;;;;;;4951213;28;20427;-73
2022/12/08 06:12:03;;;;;;;;;;;1.00;99.90;;;;;;4957414;28;19968;-73
2022/12/08 06:14:29;;;;;;;;;;;1.00;99.90;;;;;;4946731;28;19930;-73
2022/12/08 06:16:54;;;;;;;;;;;0.90;99.90;;;;;;4948850;28;19938;-73
2022/12/08 06:19:20;;;;;;;;;;;0.80;99.90;;;;;;4949349;28;19976;-73
2022/12/08 06:21:45;;;;;;;;;;;0.80;99.90;;;;;;4929826;28;20811;-73
2022/12/08 06:24:11;;;;;;;;;;;0.70;99.90;;;;;;4946067;28;20551;-73
2022/12/08 06:26:39;;;;;;;;;;;0.60;99.90;;;;;;4933110;28;19973;-73
2022/12/08 06:29:04;;;;;;;;;;;0.50;99.90;;;;;;4949651;28;19937;-73
2022/12/08 06:31:30;;;;;;;;;;;0.50;99.90;;;;;;4937111;28;20009;-73
2022/12/08 06:33:55;;;;;;;;;;;0.40;99.90;;;;;;4936551;28;19922;-73
2022/12/08 06:36:22;;;;;;;;;;;0.30;99.90;;;;;;4952128;28;20313;-73
2022/12/08 06:38:48;;;;;;;;;;;0.20;99.90;;;;;;4954765;28;19980;-73
2022/12/08 06:41:13;;;;;;;;;;;0.10;99.90;;;;;;4947025;28;19926;-73
2022/12/08 06:43:39;;;;;;;;;;;0.00;99.90;;;;;;4935029;28;20004;-73
2022/12/08 06:46:07;;;;;;;;;;;0.00;99.90;;;;;;4951116;28;19972;-73
2022/12/08 06:48:32;;;;;;;;;;;-0.10;99.90;;;;;;4946302;28;20163;-73
2022/12/08 06:51:05;;;;;;;;;;;-0.20;99.90;;;;;;4950218;28;20477;-72
2022/12/08 06:53:30;;;;;;;;;;;-0.30;99.90;;;;;;4942930;28;20162;-72
2022/12/08 06:55:56;;;;;;;;;;;-0.40;99.90;;;;;;4963588;28;19926;-72
2022/12/08 06:58:22;;;;;;;;;;;-0.40;99.90;;;;;;4948356;28;19922;-72
2022/12/08 07:00:47;;;;;;;;;;;-0.50;99.90;;;;;;4952900;28;19927;-72
2022/12/08 07:03:13;;;;;;;;;;;-0.60;99.90;;;;;;4937670;28;19933;-72
2022/12/08 07:05:39;;;;;;;;;;;-0.70;99.90;;;;;;4955576;28;19985;-72
2022/12/08 07:08:05;;;;;;;;;;;-0.70;99.90;;;;;;4957188;28;19927;-72
2022/12/08 07:10:32;;;;;;;;;;;-0.80;99.90;;;;;;4933763;28;19930;-72
2022/12/08 07:12:57;;;;;;;;;;;-0.80;99.90;;;;;;4953887;28;20020;-72
2022/12/08 07:15:23;;;;;;;;;;;-0.90;99.90;;;;;;4946641;28;19989;-72
2022/12/08 07:17:48;;;;;;;;;;;-0.90;99.90;;;;;;4948091;28;19985;-72
2022/12/08 07:20:14;;;;;;;;;;;-1.00;99.90;;;;;;4964428;28;19922;-72
2022/12/08 07:22:40;;;;;;;;;;;-1.00;99.90;;;;;;4947703;28;20383;-72
2022/12/08 07:25:06;;;;;;;;;;;-1.00;99.90;;;;;;4927681;29;19926;-72
2022/12/08 07:27:31;;;;;;;;;;;-1.10;99.90;;;;;;4961848;28;19926;-72
2022/12/08 07:29:57;;;;;;;;;;;-1.10;99.90;;;;;;4942439;28;19973;-72
2022/12/08 07:32:22;;;;;;;;;;;-1.10;99.90;;;;;;4955547;28;20427;-72
2022/12/08 07:34:48;;;;;;;;;;;-1.10;99.90;;;;;;4956554;28;19934;-72
2022/12/08 07:37:14;;;;;;;;;;;-1.10;99.90;;;;;;4951221;28;19970;-72
2022/12/08 07:39:39;;;;;;;;;;;-1.10;99.90;;;;;;4940394;28;20374;-72
2022/12/08 07:42:05;;;;;;;;;;;-1.10;99.90;;;;;;4953103;28;20017;-72
2022/12/08 07:44:30;;;;;;;;;;;-1.20;99.90;;;;;;4941215;28;20943;-72
2022/12/08 07:46:56;;;;;;;;;;;-1.20;99.90;;;;;;4937195;28;19941;-73
2022/12/08 07:49:22;;;;;;;;;;;-1.20;99.90;;;;;;4950264;28;20075;-72
2022/12/08 07:51:47;;;;;;;;;;;-1.20;99.90;;;;;;4951827;28;20586;-72
2022/12/08 07:54:13;;;;;;;;;;;-1.10;99.90;;;;;;4936006;28;20417;-73
2022/12/08 07:56:39;;;;;;;;;;;-1.10;99.90;;;;;;4935008;28;20037;-72
2022/12/08 07:59:05;;;;;;;;;;;-1.10;99.90;;;;;;4934902;28;20264;-73
2022/12/08 08:01:32;;;;;;;;;;;-1.10;99.90;;;;;;4937024;28;19933;-73
2022/12/08 08:04:00;;;;;;;;;;;-1.20;99.90;;;;;;4955737;28;20375;-73
2022/12/08 08:06:26;;;;;;;;;;;-1.20;99.90;;;;;;4951472;28;19923;-73
2022/12/08 08:08:51;;;;;;;;;;;-1.20;99.90;;;;;;4953596;28;19923;-72
2022/12/08 08:11:19;;;;;;;;;;;-1.20;99.90;;;;;;4949047;28;19926;-73
2022/12/08 08:13:45;;;;;;;;;;;-1.20;99.90;;;;;;4951158;28;19933;-73
2022/12/08 08:16:12;;;;;;;;;;;-1.10;99.90;;;;;;4950396;28;20338;-73
2022/12/08 08:18:38;;;;;;;;;;;-1.10;99.90;;;;;;4949452;28;19926;-72
2022/12/08 08:21:03;;;;;;;;;;;-1.00;99.90;;;;;;4948345;28;20331;-73
2022/12/08 08:23:29;;;;;;;;;;;-1.00;99.90;;;;;;4950448;28;19930;-73
2022/12/08 08:25:57;;;;;;;;;;;-0.90;99.90;;;;;;4947758;28;20420;-72
2022/12/08 08:28:23;;;;;;;;;;;-0.90;99.90;;;;;;4938757;28;19933;-72
2022/12/08 08:30:48;;;;;;;;;;;-0.90;99.90;;;;;;4936955;28;20307;-73
2022/12/08 08:33:14;;;;;;;;;;;-0.90;99.90;;;;;;4949196;28;20198;-72
2022/12/08 08:35:41;;;;;;;;;;;-0.90;99.90;;;;;;4934632;28;20014;-72
2022/12/08 08:38:06;;;;;;;;;;;-1.00;99.90;;;;;;4957541;28;19977;-73
2022/12/08 08:40:32;;;;;;;;;;;-0.90;99.90;;;;;;4943555;28;20375;-72
2022/12/08 08:42:59;;;;;;;;;;;-0.80;99.90;;;;;;4947302;28;19933;-73
2022/12/08 08:45:24;;;;;;;;;;;-0.70;99.90;;;;;;4955654;28;20776;-73
2022/12/08 08:47:51;;;;;;;;;;;-0.60;99.90;;;;;;4932021;28;19923;-72
2022/12/08 08:50:17;;;;;;;;;;;-0.50;99.90;;;;;;4932327;28;19935;-72
2022/12/08 08:52:42;;;;;;;;;;;-0.40;99.90;;;;;;4943608;28;19926;-73
2022/12/08 08:55:08;;;;;;;;;;;-0.30;99.90;;;;;;4948186;28;20442;-73
2022/12/08 08:57:34;;;;;;;;;;;-0.20;99.90;;;;;;4950187;28;19957;-73
2022/12/08 08:59:59;;;;;;;;;;;-0.10;99.90;;;;;;4937520;28;20447;-72
2022/12/08 09:02:25;;;;;;;;;;;0.00;99.90;;;;;;4950864;28;19934;-73
2022/12/08 09:04:51;;;;;;;;;;;0.10;99.90;;;;;;4953071;28;20485;-72
2022/12/08 09:07:16;;;;;;;;;;;0.10;99.90;;;;;;4942084;28;19930;-72
2022/12/08 09:09:42;;;;;;;;;;;0.10;99.90;;;;;;4943293;28;19950;-73
2022/12/08 09:12:07;;;;;;;;;;;0.10;99.90;;;;;;4954846;28;19923;-72
2022/12/08 09:14:33;;;;;;;;;;;0.10;99.90;;;;;;4961017;28;20287;-73
2022/12/08 09:16:59;;;;;;;;;;;0.00;99.90;;;;;;4950660;28;19932;-73
2022/12/08 09:19:24;;;;;;;;;;;0.00;99.90;;;;;;4930368;29;19926;-73
2022/12/08 09:21:50;;;;;;;;;;;-0.10;99.90;;;;;;4965589;28;19930;-73
2022/12/08 09:24:15;;;;;;;;;;;-0.10;99.90;;;;;;4958479;28;19927;-73
2022/12/08 09:26:42;;;;;;;;;;;-0.10;99.90;;;;;;4944860;28;19923;-72
2022/12/08 09:29:09;;;;;;;;;;;-0.10;99.90;;;;;;4935995;28;19926;-72
2022/12/08 09:31:35;;;;;;;;;;;-0.10;99.90;;;;;;4927639;28;19930;-71
2022/12/08 09:34:01;;;;;;;;;;;-0.10;99.90;;;;;;4935484;28;20378;-70
2022/12/08 09:36:26;;;;;;;;;;;0.00;99.90;;;;;;4941003;28;20001;-71
2022/12/08 09:38:53;;;;;;;;;;;0.10;99.90;;;;;;4950701;28;19926;-70
2022/12/08 09:41:33;;;;;;;;;;;0.30;99.90;;;;;;4944118;28;20242;-70
2022/12/08 09:44:05;;;;;;;;;;;0.40;99.90;;;;;;4955306;28;19965;-70
2022/12/08 09:46:32;;;;;;;;;;;0.60;99.90;;;;;;4950852;28;19929;-70
2022/12/08 09:48:58;;;;;;;;;;;0.70;99.90;;;;;;4953900;28;20406;-71
2022/12/08 09:51:30;;;;;;;;;;;0.90;99.90;;;;;;4947134;28;19922;-71
2022/12/08 09:54:03;;;;;;;;;;;1.10;99.90;;;;;;4939117;28;19927;-71
2022/12/08 09:56:32;;;;;;;;;;;1.20;99.90;;;;;;4952447;28;19926;-71
2022/12/08 09:59:01;;;;;;;;;;;1.30;99.90;;;;;;4937562;28;20354;-71
2022/12/08 10:01:28;;;;;;;;;;;1.40;99.90;;;;;;4952333;28;19953;-71
2022/12/08 10:03:54;;;;;;;;;;;1.40;99.90;;;;;;4953272;28;19922;-70
2022/12/08 10:06:23;;;;;;;;;;;1.50;99.90;;;;;;4946076;28;19930;-70
2022/12/08 10:09:08;;;;;;;;;;;1.50;99.90;;;;;;4947103;28;19931;-70
2022/12/08 10:11:52;;;;;;;;;;;1.50;99.90;;;;;;4951663;28;19926;-70
2022/12/08 10:14:24;;;;;;;;;;;1.60;99.90;;;;;;4946467;28;19926;-70
2022/12/08 10:16:53;;;;;;;;;;;1.60;99.90;;;;;;4939484;28;19923;-70
2022/12/08 10:19:22;;;;;;;;;;;1.70;99.90;;;;;;4942300;28;20035;-70
2022/12/08 10:21:48;;;;;;;;;;;1.70;99.90;;;;;;4966783;28;20399;-70
2022/12/08 10:24:26;;;;;;;;;;;1.90;99.90;;;;;;4952324;28;20457;-70
2022/12/08 10:26:52;;;;;;;;;;;2.00;99.90;;;;;;4961352;28;19989;-70
2022/12/08 10:29:18;;;;;;;;;;;2.10;99.90;;;;;;4955294;28;20375;-70
2022/12/08 10:31:44;;;;;;;;;;;2.20;99.90;;;;;;4949305;28;20013;-70
2022/12/08 10:34:21;;;;;;;;;;;2.20;99.90;;;;;;4950128;28;19945;-70
2022/12/08 10:36:51;;;;;;;;;;;2.30;99.90;;;;;;4965559;28;20010;-71
2022/12/08 10:39:32;;;;;;;;;;;2.30;99.90;;;;;;4947525;28;20311;-71
2022/12/08 10:42:07;;;;;;;;;;;2.30;99.90;;;;;;4962423;28;20507;-71
2022/12/08 10:44:37;;;;;;;;;;;2.30;99.90;;;;;;4952416;28;19930;-71
2022/12/08 10:47:10;;;;;;;;;;;2.30;99.90;;;;;;4933783;28;19933;-71
2022/12/08 10:49:37;;;;;;;;;;;2.20;99.90;;;;;;4949562;28;19935;-71
2022/12/08 10:52:07;;;;;;;;;;;2.10;99.90;;;;;;4951482;28;20006;-71
2022/12/08 10:54:37;;;;;;;;;;;1.90;99.90;;;;;;4950260;28;19926;-71
2022/12/08 10:57:03;;;;;;;;;;;1.80;99.90;;;;;;4952369;28;19961;-71
2022/12/08 10:59:31;;;;;;;;;;;1.80;99.90;;;;;;4938706;28;20422;-71
2022/12/08 11:01:58;;;;;;;;;;;1.70;99.90;;;;;;4946858;28;20477;-71
2022/12/08 11:04:35;;;;;;;;;;;1.70;99.90;;;;;;4951888;28;20458;-71
2022/12/08 11:07:01;;;;;;;;;;;1.70;99.90;;;;;;4950174;28;19974;-71
2022/12/08 11:09:36;;;;;;;;;;;1.60;99.90;;;;;;4938066;28;20422;-71
2022/12/08 11:12:06;;;;;;;;;;;1.70;99.90;;;;;;4949560;28;19930;-71
2022/12/08 11:14:31;;;;;;;;;;;1.80;99.90;;;;;;4956594;28;20221;-71
2022/12/08 11:17:02;;;;;;;;;;;1.90;99.90;;;;;;4956828;28;19926;-71
2022/12/08 11:19:28;;;;;;;;;;;2.00;99.90;;;;;;4952216;28;19932;-71
2022/12/08 11:21:53;;;;;;;;;;;2.10;99.90;;;;;;4935052;28;20138;-73
2022/12/08 11:24:27;;;;;;;;;;;2.10;99.90;;;;;;4952461;28;19933;-75
2022/12/08 11:27:01;;;;;;;;;;;2.20;99.90;;;;;;4960507;28;19933;-73
2022/12/08 11:29:27;;;;;;;;;;;2.40;99.90;;;;;;4951868;28;19931;-72
2022/12/08 11:31:59;;;;;;;;;;;2.50;99.90;;;;;;4941295;28;19923;-74
2022/12/08 11:34:35;;;;;;;;;;;2.60;99.90;;;;;;4939297;28;19981;-74
2022/12/08 11:37:03;;;;;;;;;;;2.60;99.90;;;;;;4926567;28;19938;-73
2022/12/08 11:39:31;;;;;;;;;;;2.60;99.90;;;;;;4963357;28;20356;-73
2022/12/08 11:41:57;;;;;;;;;;;2.60;99.90;;;;;;4953298;28;19980;-73
2022/12/08 11:44:52;;;;;;;;;;;2.60;99.90;;;;;;4943284;28;19938;-73
2022/12/08 11:47:26;;;;;;;;;;;2.70;99.90;;;;;;4943120;28;20132;-74
2022/12/08 11:49:55;;;;;;;;;;;2.70;99.90;;;;;;4932387;28;20383;-74
2022/12/08 11:52:40;;;;;;;;;;;2.80;99.90;;;;;;4948915;28;19926;-73
2022/12/08 11:55:29;;;;;;;;;;;2.90;99.90;;;;;;4944166;28;19930;-72
2022/12/08 11:57:56;;;;;;;;;;;3.00;99.90;;;;;;4947609;28;20249;-73
2022/12/08 12:00:22;;;;;;;;;;;3.00;99.90;;;;;;4949948;28;19933;-74
2022/12/08 12:02:51;;;;;;;;;;;3.20;99.90;;;;;;4949454;28;19930;-74
2022/12/08 12:05:32;;;;;;;;;;;3.20;99.90;;;;;;4956934;28;20302;-73
2022/12/08 12:08:01;;;;;;;;;;;3.20;99.90;;;;;;4954752;28;20077;-73
2022/12/08 12:10:33;;;;;;;;;;;3.30;99.90;;;;;;4946364;28;19976;-74
2022/12/08 12:13:17;;;;;;;;;;;3.50;99.90;;;;;;4977614;28;20017;-73
2022/12/08 12:16:03;;;;;;;;;;;3.60;99.90;;;;;;4933984;28;19926;-73
2022/12/08 12:18:37;;;;;;;;;;;3.70;99.90;;;;;;4966215;28;19945;-73
2022/12/08 12:21:25;;;;;;;;;;;3.80;99.90;;;;;;4957259;28;19922;-74
2022/12/08 12:23:55;;;;;;;;;;;3.80;99.90;;;;;;4960726;28;19932;-73
2022/12/08 12:26:23;;;;;;;;;;;3.90;99.90;;;;;;4941226;28;19942;-74
2022/12/08 12:28:55;;;;;;;;;;;3.90;99.90;;;;;;4952335;28;19933;-73
2022/12/08 12:31:23;;;;;;;;;;;3.90;99.90;;;;;;4957234;28;19927;-73
2022/12/08 12:33:49;;;;;;;;;;;3.90;99.90;;;;;;4963478;28;20367;-72
2022/12/08 12:36:15;;;;;;;;;;;3.90;99.90;;;;;;4939224;28;19933;-73
2022/12/08 12:39:02;;;;;;;;;;;3.90;99.90;;;;;;4967210;28;19922;-73
2022/12/08 12:41:34;;;;;;;;;;;3.90;99.90;;;;;;4959707;28;19922;-73
2022/12/08 12:44:08;;;;;;;;;;;4.00;99.90;;;;;;4952512;28;19981;-74
2022/12/08 12:46:39;;;;;;;;;;;3.90;99.90;;;;;;4959179;28;19926;-73
2022/12/08 12:49:24;;;;;;;;;;;3.90;99.90;;;;;;4958498;28;19931;-73
2022/12/08 12:51:53;;;;;;;;;;;3.90;99.90;;;;;;4939151;28;20002;-72
2022/12/08 12:54:24;;;;;;;;;;;3.90;99.90;;;;;;4937863;28;19927;-73
2022/12/08 12:56:51;;;;;;;;;;;3.80;99.90;;;;;;4952225;28;19927;-73
2022/12/08 12:59:36;;;;;;;;;;;3.90;99.90;;;;;;4956048;28;19937;-74
2022/12/08 13:02:02;;;;;;;;;;;4.00;99.90;;;;;;4942510;28;19993;-73
2022/12/08 13:04:33;;;;;;;;;;;4.10;99.90;;;;;;4941453;28;19927;-74
2022/12/08 13:06:59;;;;;;;;;;;4.20;99.90;;;;;;4952870;28;20371;-74
2022/12/08 13:09:34;;;;;;;;;;;4.20;99.90;;;;;;4959839;28;19986;-73
2022/12/08 13:12:07;;;;;;;;;;;4.20;99.90;;;;;;4954684;28;19954;-74
2022/12/08 13:14:52;;;;;;;;;;;4.20;99.90;;;;;;4960770;28;20373;-73
2022/12/08 13:17:31;;;;;;;;;;;4.20;99.90;;;;;;4967200;28;20413;-74
2022/12/08 13:19:58;;;;;;;;;;;4.10;99.90;;;;;;4962990;28;20410;-74
2022/12/08 13:22:43;;;;;;;;;;;4.10;99.90;;;;;;4971135;28;19922;-74
2022/12/08 13:25:27;;;;;;;;;;;4.10;99.90;;;;;;4949970;28;19922;-73
2022/12/08 13:27:53;;;;;;;;;;;4.00;99.90;;;;;;4959974;28;19926;-74
2022/12/08 13:30:38;;;;;;;;;;;4.00;99.90;;;;;;4943233;28;19933;-73
2022/12/08 13:33:10;;;;;;;;;;;4.00;99.90;;;;;;4963628;28;20341;-74
2022/12/08 13:35:39;;;;;;;;;;;3.90;99.90;;;;;;4958246;28;19993;-73
2022/12/08 13:38:05;;;;;;;;;;;4.00;99.90;;;;;;4950263;28;19926;-73
2022/12/08 13:40:33;;;;;;;;;;;4.00;99.90;;;;;;4951481;28;19927;-73
2022/12/08 13:43:05;;;;;;;;;;;4.00;99.90;;;;;;4933011;28;19992;-73
2022/12/08 13:45:31;;;;;;;;;;;4.00;99.90;;;;;;4948467;28;19950;-73
2022/12/08 13:48:20;;;;;;;;;;;4.00;99.90;;;;;;4950267;28;19930;-72
2022/12/08 13:50:52;;;;;;;;;;;4.00;99.90;;;;;;4949887;28;19938;-73
2022/12/08 13:53:23;;;;;;;;;;;4.00;99.90;;;;;;4942027;28;19926;-73
2022/12/08 13:55:51;;;;;;;;;;;3.90;99.90;;;;;;4951265;28;19958;-73
2022/12/08 13:58:31;;;;;;;;;;;3.80;99.90;;;;;;4973616;28;19974;-73
2022/12/08 14:00:59;;;;;;;;;;;3.70;99.90;;;;;;4961912;28;19953;-73
2022/12/08 14:03:25;;;;;;;;;;;3.60;99.90;;;;;;4933368;28;20029;-73
2022/12/08 14:05:51;;;;;;;;;;;3.40;99.90;;;;;;4955731;28;19974;-73
2022/12/08 14:08:28;;;;;;;;;;;3.30;99.90;;;;;;4956965;28;19945;-74
2022/12/08 14:11:05;;;;;;;;;;;3.20;99.90;;;;;;4953846;28;20057;-73
2022/12/08 14:13:31;;;;;;;;;;;3.00;99.90;;;;;;4954410;28;20210;-74
2022/12/08 14:15:57;;;;;;;;;;;2.90;99.90;;;;;;4957080;28;20398;-73
2022/12/08 14:18:27;;;;;;;;;;;2.90;99.90;;;;;;4959074;28;19952;-73
2022/12/08 14:21:18;;;;;;;;;;;2.90;99.90;;;;;;4956654;28;20485;-74
2022/12/08 14:23:44;;;;;;;;;;;2.90;99.90;;;;;;4947268;28;19922;-72
2022/12/08 14:26:11;;;;;;;;;;;2.80;99.90;;;;;;4944034;28;19928;-71
2022/12/08 14:28:36;;;;;;;;;;;2.80;99.90;;;;;;4950908;28;20414;-71
2022/12/08 14:31:02;;;;;;;;;;;2.80;99.90;;;;;;4963729;28;19984;-70
2022/12/08 14:33:29;;;;;;;;;;;2.70;99.90;;;;;;4964222;28;19948;-70
2022/12/08 14:35:55;;;;;;;;;;;2.70;99.90;;;;;;4964239;28;20416;-70
2022/12/08 14:38:22;;;;;;;;;;;2.60;99.90;;;;;;4962105;28;19922;-71
2022/12/08 14:40:57;;;;;;;;;;;2.60;99.90;;;;;;4948906;28;19942;-71